createdAt,value
2018-11-23T00:01:55.954Z,31.33
2018-11-23T00:04:24.336Z,30.47
2018-11-23T00:06:52.756Z,32.57
2018-11-23T00:09:21.174Z,31.30
2018-11-23T00:11:49.605Z,32.77
2018-11-23T00:14:18.054Z,29.23
2018-11-23T00:16:46.477Z,29.37
2018-11-23T00:19:14.896Z,28.47
2018-11-23T00:21:43.337Z,29.50
2018-11-23T00:24:11.729Z,30.67
2018-11-23T00:26:40.154Z,30.07
2018-11-23T00:29:08.592Z,27.50
2018-11-23T00:31:37.053Z,29.07
2018-11-23T00:34:05.717Z,30.73
2018-11-23T00:36:34.116Z,31.00
2018-11-23T00:39:02.533Z,29.97
2018-11-23T00:41:30.956Z,29.60
2018-11-23T00:43:59.348Z,30.70
2018-11-23T00:46:27.775Z,29.63
2018-11-23T00:48:56.146Z,27.70
2018-11-23T00:51:24.547Z,29.90
2018-11-23T00:53:52.988Z,27.03
2018-11-23T00:56:21.364Z,28.13
2018-11-23T00:58:49.768Z,30.10
2018-11-23T01:01:18.204Z,29.80
2018-11-23T01:03:46.613Z,30.47
2018-11-23T01:06:14.996Z,29.37
2018-11-23T01:08:43.397Z,32.63
2018-11-23T01:11:11.839Z,30.37
2018-11-23T01:13:39.935Z,29.67
2018-11-23T01:16:08.076Z,28.23
2018-11-23T01:18:36.210Z,28.97
2018-11-23T01:21:04.363Z,30.50
2018-11-23T01:23:32.499Z,30.37
2018-11-23T01:26:00.642Z,32.60
2018-11-23T01:28:28.803Z,30.53
2018-11-23T01:30:56.960Z,30.47
2018-11-23T01:33:25.119Z,30.40
2018-11-23T01:35:53.246Z,29.37
2018-11-23T01:38:21.394Z,31.00
2018-11-23T01:40:49.530Z,30.10
2018-11-23T01:43:17.678Z,29.80
2018-11-23T01:45:45.816Z,29.30
2018-11-23T01:48:13.963Z,30.67
2018-11-23T01:50:42.114Z,30.87
2018-11-23T01:53:10.248Z,29.50
2018-11-23T01:55:38.380Z,32.27
2018-11-23T01:58:06.509Z,27.07
2018-11-23T02:00:34.674Z,31.77
2018-11-23T02:03:02.868Z,30.70
2018-11-23T02:05:31.007Z,28.23
2018-11-23T02:07:59.142Z,26.50
2018-11-23T02:10:27.267Z,29.63
2018-11-23T02:12:55.392Z,28.90
2018-11-23T02:15:23.769Z,31.13
2018-11-23T02:17:52.143Z,28.87
2018-11-23T02:20:20.918Z,31.20
2018-11-23T02:22:49.099Z,29.47
2018-11-23T02:25:17.230Z,27.73
2018-11-23T02:27:45.367Z,32.10
2018-11-23T02:30:16.132Z,30.67
2018-11-23T02:32:44.539Z,29.47
2018-11-23T02:35:13.151Z,27.80
2018-11-23T02:37:41.302Z,31.33
2018-11-23T02:40:10.520Z,30.77
2018-11-23T02:42:38.889Z,29.27
2018-11-23T02:45:08.235Z,31.77
2018-11-23T02:47:36.364Z,29.17
2018-11-23T02:50:04.523Z,31.87
2018-11-23T02:52:32.664Z,30.57
2018-11-23T02:55:00.840Z,29.33
2018-11-23T02:57:28.968Z,29.43
2018-11-23T02:59:57.126Z,28.77
2018-11-23T03:02:25.297Z,28.43
2018-11-23T03:04:53.463Z,29.23
2018-11-23T03:07:21.660Z,32.13
2018-11-23T03:09:49.796Z,28.87
2018-11-23T03:12:17.918Z,29.40
2018-11-23T03:14:46.056Z,25.27
2018-11-23T03:17:14.216Z,30.67
2018-11-23T03:19:42.345Z,29.63
2018-11-23T03:22:10.491Z,28.53
2018-11-23T03:24:38.624Z,31.87
2018-11-23T03:27:06.754Z,23.93
2018-11-23T03:29:34.904Z,28.93
2018-11-23T03:32:03.047Z,29.83
2018-11-23T03:34:31.170Z,30.67
2018-11-23T03:36:59.300Z,31.50
2018-11-23T03:39:30.419Z,30.50
2018-11-23T03:41:55.610Z,30.50
2018-11-23T03:44:23.752Z,28.60
2018-11-23T03:46:51.874Z,29.67
2018-11-23T03:49:20.039Z,27.87
2018-11-23T03:51:48.178Z,33.53
2018-11-23T03:54:16.316Z,27.03
2018-11-23T03:56:44.471Z,26.57
2018-11-23T03:59:12.655Z,32.67
2018-11-23T04:01:40.791Z,30.00
2018-11-23T04:04:08.923Z,30.87
2018-11-23T04:06:37.117Z,32.23
2018-11-23T04:09:06.589Z,31.33
2018-11-23T04:11:34.723Z,31.20
2018-11-23T04:14:02.845Z,29.07
2018-11-23T04:16:31.002Z,33.57
2018-11-23T04:18:59.131Z,32.20
2018-11-23T04:21:27.262Z,33.80
2018-11-23T04:23:55.386Z,30.93
2018-11-23T04:26:24.831Z,27.07
2018-11-23T04:28:51.664Z,31.40
2018-11-23T04:31:19.800Z,30.30
2018-11-23T04:33:47.948Z,32.63
2018-11-23T04:36:16.073Z,33.07
2018-11-23T04:38:44.207Z,31.80
2018-11-23T04:41:12.330Z,33.83
2018-11-23T04:43:40.476Z,31.67
2018-11-23T04:46:08.616Z,32.73
2018-11-23T04:48:36.765Z,32.47
2018-11-23T04:51:04.935Z,30.57
2018-11-23T04:53:33.085Z,30.03
2018-11-23T04:56:01.246Z,30.33
2018-11-23T04:58:29.363Z,31.77
2018-11-23T05:00:57.483Z,31.20
2018-11-23T05:03:25.615Z,31.07
2018-11-23T05:05:53.747Z,30.37
2018-11-23T05:08:21.896Z,31.33
2018-11-23T05:10:50.067Z,30.47
2018-11-23T05:13:18.212Z,25.83
2018-11-23T05:15:46.373Z,32.00
2018-11-23T05:18:14.480Z,29.67
2018-11-23T05:20:42.636Z,29.40
2018-11-23T05:23:10.793Z,28.03
2018-11-23T05:25:38.937Z,29.67
2018-11-23T05:28:07.082Z,30.80
2018-11-23T05:30:35.242Z,27.37
2018-11-23T05:33:03.395Z,27.90
2018-11-23T05:35:31.527Z,31.93
2018-11-23T05:37:59.674Z,31.60
2018-11-23T05:40:27.798Z,27.80
2018-11-23T05:42:55.951Z,28.33
2018-11-23T05:45:24.085Z,33.80
2018-11-23T05:47:52.218Z,32.23
2018-11-23T05:50:25.187Z,31.53
2018-11-23T05:52:53.418Z,28.50
2018-11-23T05:55:21.574Z,28.73
2018-11-23T05:57:49.794Z,32.33
2018-11-23T06:00:19.750Z,34.40
2018-11-23T06:02:47.902Z,29.10
2018-11-23T06:05:16.122Z,31.33
2018-11-23T06:07:44.278Z,31.63
2018-11-23T06:10:13.841Z,31.73
2018-11-23T06:12:42.010Z,26.00
2018-11-23T06:15:11.618Z,31.07
2018-11-23T06:17:40.000Z,31.80
2018-11-23T06:20:09.395Z,34.57
2018-11-23T06:22:37.758Z,30.30
2018-11-23T06:25:07.172Z,32.20
2018-11-23T06:27:35.328Z,33.93
2018-11-23T06:30:03.530Z,32.20
2018-11-23T06:32:37.320Z,32.27
2018-11-23T06:35:06.011Z,32.87
2018-11-23T06:37:34.153Z,31.40
2018-11-23T06:40:02.316Z,32.23
2018-11-23T06:42:30.480Z,32.43
2018-11-23T06:44:58.619Z,34.63
2018-11-23T06:47:26.764Z,29.33
2018-11-23T06:49:54.921Z,31.07
2018-11-23T06:52:23.064Z,34.10
2018-11-23T06:54:51.233Z,30.90
2018-11-23T06:57:19.382Z,32.60
2018-11-23T06:59:47.529Z,33.37
2018-11-23T07:02:15.664Z,28.77
2018-11-23T07:04:43.783Z,32.70
2018-11-23T07:07:11.917Z,34.57
2018-11-23T07:09:40.079Z,32.73
2018-11-23T07:12:08.219Z,33.23
2018-11-23T07:14:36.350Z,32.90
2018-11-23T07:17:04.743Z,35.30
2018-11-23T07:19:32.860Z,30.10
2018-11-23T07:22:01.044Z,32.47
2018-11-23T07:24:29.195Z,33.10
2018-11-23T07:26:57.347Z,32.73
2018-11-23T07:29:25.502Z,33.63
2018-11-23T07:31:53.633Z,33.43
2018-11-23T07:34:22.890Z,31.80
2018-11-23T07:36:49.935Z,33.97
2018-11-23T07:39:23.751Z,33.93
2018-11-23T07:41:57.435Z,35.63
2018-11-23T07:44:25.595Z,37.17
2018-11-23T07:46:54.093Z,32.83
2018-11-23T07:49:22.237Z,36.60
2018-11-23T07:51:50.385Z,31.03
2018-11-23T07:54:18.507Z,33.67
2018-11-23T07:56:46.659Z,37.30
2018-11-23T07:59:14.803Z,35.17
2018-11-23T08:01:42.979Z,35.87
2018-11-23T08:04:11.129Z,28.33
2018-11-23T08:06:39.246Z,34.80
2018-11-23T08:09:08.184Z,31.77
2018-11-23T08:11:36.319Z,37.03
2018-11-23T08:14:04.723Z,32.87
2018-11-23T08:16:32.881Z,31.10
2018-11-23T08:19:01.008Z,36.70
2018-11-23T08:21:29.170Z,33.67
2018-11-23T08:23:57.286Z,32.83
2018-11-23T08:26:25.446Z,33.20
2018-11-23T08:28:53.757Z,35.70
2018-11-23T08:31:21.894Z,32.37
2018-11-23T08:33:50.076Z,35.53
2018-11-23T08:36:18.235Z,31.87
2018-11-23T08:38:46.376Z,32.97
2018-11-23T08:41:14.507Z,30.97
2018-11-23T08:43:42.652Z,27.90
2018-11-23T08:46:10.780Z,31.10
2018-11-23T08:48:38.915Z,31.93
2018-11-23T08:51:07.071Z,33.10
2018-11-23T08:53:35.793Z,31.67
2018-11-23T08:56:04.483Z,33.87
2018-11-23T08:58:32.644Z,36.83
2018-11-23T09:01:00.816Z,31.80
2018-11-23T09:03:28.949Z,34.43
2018-11-23T09:05:57.102Z,35.73
2018-11-23T09:08:25.232Z,34.40
2018-11-23T09:10:53.443Z,33.13
2018-11-23T09:13:21.575Z,31.43
2018-11-23T09:15:49.703Z,33.90
2018-11-23T09:18:17.867Z,34.57
2018-11-23T09:20:46.009Z,33.47
2018-11-23T09:23:14.503Z,34.93
2018-11-23T09:25:42.330Z,34.43
2018-11-23T09:28:10.480Z,34.13
2018-11-23T09:30:38.618Z,36.13
2018-11-23T09:33:06.756Z,37.73
2018-11-23T09:35:34.905Z,34.83
2018-11-23T09:38:03.035Z,31.03
2018-11-23T09:40:31.410Z,35.73
2018-11-23T09:42:59.588Z,35.77
2018-11-23T09:45:30.011Z,35.40
2018-11-23T09:47:59.614Z,32.57
2018-11-23T09:50:28.186Z,35.63
2018-11-23T09:52:57.807Z,35.00
2018-11-23T09:55:26.797Z,33.40
2018-11-23T09:57:54.948Z,36.33
2018-11-23T10:00:24.284Z,35.40
2018-11-23T10:02:53.563Z,35.57
2018-11-23T10:05:22.255Z,36.03
2018-11-23T10:07:51.763Z,36.00
2018-11-23T10:10:20.547Z,35.30
2018-11-23T10:12:48.801Z,37.73
2018-11-23T10:15:17.706Z,35.93
2018-11-23T10:17:45.851Z,38.83
2018-11-23T10:20:15.840Z,34.43
2018-11-23T10:22:44.291Z,35.63
2018-11-23T10:25:13.804Z,38.07
2018-11-23T10:27:42.579Z,36.40
2018-11-23T10:30:12.101Z,36.50
2018-11-23T10:32:40.219Z,36.40
2018-11-23T10:35:09.021Z,29.53
2018-11-23T10:37:37.783Z,33.57
2018-11-23T10:40:07.419Z,35.67
2018-11-23T10:42:35.552Z,36.73
2018-11-23T10:45:04.080Z,35.67
2018-11-23T10:47:32.229Z,36.57
2018-11-23T10:50:00.350Z,35.57
2018-11-23T10:52:28.488Z,36.13
2018-11-23T10:54:56.635Z,37.20
2018-11-23T10:57:24.766Z,40.17
2018-11-23T10:59:52.907Z,32.27
2018-11-23T11:02:26.364Z,37.53
2018-11-23T11:04:59.981Z,38.00
2018-11-23T11:07:28.160Z,32.60
2018-11-23T11:09:56.291Z,29.87
2018-11-23T11:12:24.468Z,31.30
2018-11-23T11:14:52.778Z,34.63
2018-11-23T11:17:20.928Z,35.17
2018-11-23T11:19:49.469Z,38.47
2018-11-23T11:22:17.627Z,42.30
2018-11-23T11:24:45.771Z,37.20
2018-11-23T11:27:13.933Z,33.63
2018-11-23T11:29:42.075Z,38.00
2018-11-23T11:32:10.219Z,36.17
2018-11-23T11:34:38.358Z,36.27
2018-11-23T11:37:06.517Z,36.77
2018-11-23T11:39:34.673Z,36.73
2018-11-23T11:42:02.853Z,38.60
2018-11-23T11:44:30.987Z,42.67
2018-11-23T11:46:59.124Z,36.57
2018-11-23T11:49:27.250Z,39.03
2018-11-23T11:51:55.375Z,37.93
2018-11-23T11:54:23.516Z,34.27
2018-11-23T11:56:51.645Z,29.10
2018-11-23T11:59:19.770Z,36.47
2018-11-23T12:01:47.979Z,33.13
2018-11-23T12:04:16.118Z,36.50
2018-11-23T12:06:44.269Z,35.80
2018-11-23T12:09:12.483Z,35.87
2018-11-23T12:11:40.906Z,31.73
2018-11-23T12:14:09.077Z,36.80
2018-11-23T12:16:37.515Z,36.20
2018-11-23T12:19:08.108Z,39.67
2018-11-23T12:21:33.911Z,37.50
2018-11-23T12:24:02.036Z,35.43
2018-11-23T12:26:30.190Z,38.93
2018-11-23T12:28:58.366Z,37.93
2018-11-23T12:31:26.524Z,35.10
2018-11-23T12:33:54.662Z,33.97
2018-11-23T12:36:23.023Z,38.63
2018-11-23T12:38:51.171Z,37.50
2018-11-23T12:41:19.314Z,35.03
2018-11-23T12:43:47.448Z,33.87
2018-11-23T12:46:15.587Z,38.60
2018-11-23T12:48:44.035Z,36.87
2018-11-23T12:51:12.186Z,36.33
2018-11-23T12:53:40.332Z,39.27
2018-11-23T12:56:08.504Z,35.77
2018-11-23T12:58:36.841Z,34.40
2018-11-23T13:01:05.172Z,35.70
2018-11-23T13:03:33.353Z,29.90
2018-11-23T13:06:01.707Z,38.67
2018-11-23T13:08:29.869Z,38.27
2018-11-23T13:10:57.999Z,36.97
2018-11-23T13:13:26.270Z,33.27
2018-11-23T13:15:54.427Z,36.20
2018-11-23T13:18:22.586Z,29.27
2018-11-23T13:20:50.847Z,38.27
2018-11-23T13:23:18.998Z,36.07
2018-11-23T13:25:47.157Z,37.43
2018-11-23T13:28:15.307Z,36.93
2018-11-23T13:30:43.480Z,36.10
2018-11-23T13:33:11.636Z,35.57
2018-11-23T13:35:39.769Z,36.40
2018-11-23T13:38:07.939Z,36.33
2018-11-23T13:40:36.110Z,35.30
2018-11-23T13:43:04.332Z,34.90
2018-11-23T13:45:33.643Z,33.20
2018-11-23T13:48:01.820Z,36.93
2018-11-23T13:50:30.211Z,34.53
2018-11-23T13:53:00.015Z,36.63
2018-11-23T13:55:28.171Z,33.63
2018-11-23T13:57:56.294Z,36.20
2018-11-23T14:00:25.868Z,32.03
2018-11-23T14:02:54.037Z,33.83
2018-11-23T14:05:23.531Z,31.77
2018-11-23T14:07:53.147Z,36.23
2018-11-23T14:10:22.427Z,37.13
2018-11-23T14:12:50.939Z,36.30
2018-11-23T14:15:20.541Z,36.47
2018-11-23T14:17:49.707Z,35.90
2018-11-23T14:20:18.606Z,38.63
2018-11-23T14:22:46.972Z,36.37
2018-11-23T14:25:17.587Z,37.03
2018-11-23T14:27:46.210Z,31.90
2018-11-23T14:30:16.139Z,33.73
2018-11-23T14:32:44.385Z,33.27
2018-11-23T14:35:14.023Z,25.60
2018-11-23T14:37:42.683Z,37.80
2018-11-23T14:40:11.703Z,34.53
2018-11-23T14:42:41.102Z,36.53
2018-11-23T14:45:10.507Z,38.40
2018-11-23T14:47:38.873Z,37.20
2018-11-23T14:50:08.700Z,37.47
2018-11-23T14:52:36.815Z,36.33
2018-11-23T14:55:05.551Z,33.57
2018-11-23T14:57:33.694Z,35.27
2018-11-23T15:00:01.850Z,32.60
2018-11-23T15:02:30.094Z,36.50
2018-11-23T15:04:58.215Z,39.23
2018-11-23T15:07:26.376Z,35.07
2018-11-23T15:09:54.512Z,35.10
2018-11-23T15:12:22.668Z,34.10
2018-11-23T15:14:50.820Z,38.70
2018-11-23T15:17:18.969Z,37.37
2018-11-23T15:19:47.148Z,37.13
2018-11-23T15:22:15.306Z,34.77
2018-11-23T15:24:43.434Z,40.17
2018-11-23T15:27:11.593Z,39.30
2018-11-23T15:29:39.747Z,39.10
2018-11-23T15:32:07.889Z,36.00
2018-11-23T15:34:36.023Z,36.27
2018-11-23T15:37:04.361Z,39.13
2018-11-23T15:39:32.540Z,38.40
2018-11-23T15:42:00.719Z,40.63
2018-11-23T15:44:28.855Z,41.17
2018-11-23T15:46:57.001Z,37.83
2018-11-23T15:49:26.135Z,36.60
2018-11-23T15:51:54.669Z,43.77
2018-11-23T15:54:22.794Z,43.67
2018-11-23T15:56:50.955Z,40.70
2018-11-23T15:59:22.513Z,34.73
2018-11-23T16:01:50.644Z,35.97
2018-11-23T16:04:18.787Z,38.50
2018-11-23T16:06:46.944Z,36.00
2018-11-23T16:09:15.120Z,40.70
2018-11-23T16:11:43.275Z,40.17
2018-11-23T16:14:11.411Z,35.13
2018-11-23T16:16:39.551Z,37.63
2018-11-23T16:19:07.729Z,39.83
2018-11-23T16:21:35.872Z,41.20
2018-11-23T16:24:04.098Z,39.73
2018-11-23T16:26:32.281Z,39.63
2018-11-23T16:29:00.423Z,33.87
2018-11-23T16:31:28.574Z,37.43
2018-11-23T16:33:56.761Z,38.67
2018-11-23T16:36:24.911Z,39.23
2018-11-23T16:38:53.047Z,35.90
2018-11-23T16:41:21.204Z,38.23
2018-11-23T16:43:49.354Z,37.57
2018-11-23T16:46:17.528Z,41.73
2018-11-23T16:48:45.700Z,40.30
2018-11-23T16:51:13.866Z,39.47
2018-11-23T16:53:42.012Z,42.80
2018-11-23T16:56:10.188Z,37.83
2018-11-23T16:58:38.323Z,34.73
2018-11-23T17:01:06.440Z,39.00
2018-11-23T17:03:34.621Z,38.87
2018-11-23T17:06:02.761Z,40.63
2018-11-23T17:08:30.871Z,38.20
2018-11-23T17:13:36.585Z,41.83
2018-11-23T17:16:05.064Z,44.57
2018-11-23T17:18:33.207Z,38.67
2018-11-23T17:21:01.324Z,39.50
2018-11-23T17:23:29.492Z,40.50
2018-11-23T17:25:57.649Z,41.37
2018-11-23T17:28:25.785Z,43.47
2018-11-23T17:30:53.910Z,41.90
2018-11-23T17:33:22.040Z,40.60
2018-11-23T17:35:50.187Z,41.70
2018-11-23T17:38:18.325Z,41.43
2018-11-23T17:40:46.472Z,41.97
2018-11-23T17:43:14.628Z,37.83
2018-11-23T17:55:35.619Z,43.03
2018-11-23T17:58:03.888Z,42.83
2018-11-23T18:00:38.907Z,40.73
2018-11-23T18:03:02.319Z,41.97
2018-11-23T18:05:31.259Z,46.03
2018-11-23T18:08:00.162Z,44.57
2018-11-23T18:10:29.655Z,38.90
2018-11-23T18:12:58.555Z,44.53
2018-11-23T18:15:28.712Z,44.77
2018-11-23T18:17:57.797Z,40.10
2018-11-23T18:20:26.877Z,41.23
2018-11-23T18:22:55.810Z,41.17
2018-11-23T18:25:26.382Z,40.03
2018-11-23T18:27:59.922Z,39.73
2018-11-23T18:30:28.779Z,41.53
2018-11-23T18:32:56.946Z,41.00
2018-11-23T18:35:25.089Z,42.03
2018-11-23T18:37:53.248Z,44.17
2018-11-23T18:40:21.408Z,43.47
2018-11-23T18:42:49.589Z,41.13
2018-11-23T18:45:17.746Z,39.80
2018-11-23T18:47:46.023Z,43.17
2018-11-23T18:50:14.670Z,53.23
2018-11-23T18:52:42.882Z,48.23
2018-11-23T18:55:17.952Z,41.43
2018-11-23T18:57:39.727Z,45.90
2018-11-23T19:00:09.623Z,43.27
2018-11-23T19:02:37.813Z,36.87
2018-11-23T19:05:07.908Z,40.10
2018-11-23T19:07:36.065Z,40.97
2018-11-23T19:10:04.611Z,35.30
2018-11-23T19:12:32.751Z,44.37
2018-11-23T19:15:00.879Z,42.80
2018-11-23T19:17:29.036Z,42.70
2018-11-23T19:19:57.190Z,41.83
2018-11-23T19:22:25.339Z,43.70
2018-11-23T19:24:53.479Z,41.00
2018-11-23T19:27:21.626Z,39.47
2018-11-23T19:29:49.754Z,41.83
2018-11-23T19:32:17.929Z,42.73
2018-11-23T19:34:46.056Z,39.33
2018-11-23T19:37:14.197Z,40.53
2018-11-23T19:39:42.344Z,45.47
2018-11-23T19:42:10.497Z,40.17
2018-11-23T19:44:38.622Z,40.40
2018-11-23T19:47:06.771Z,42.67
2018-11-23T19:49:34.905Z,42.53
2018-11-23T19:52:03.050Z,42.27
2018-11-23T19:54:31.183Z,42.47
2018-11-23T19:56:59.341Z,40.07
2018-11-23T19:59:27.505Z,42.07
2018-11-23T20:01:55.650Z,42.67
2018-11-23T20:04:23.796Z,41.73
2018-11-23T20:06:51.973Z,41.40
2018-11-23T20:09:20.107Z,39.67
2018-11-23T20:11:48.259Z,40.27
2018-11-23T20:14:16.419Z,45.83
2018-11-23T20:16:44.552Z,44.47
2018-11-23T20:19:12.739Z,39.30
2018-11-23T20:21:40.885Z,44.33
2018-11-23T20:24:09.030Z,41.87
2018-11-23T20:26:37.197Z,40.10
2018-11-23T20:29:06.673Z,39.77
2018-11-23T20:31:34.837Z,41.53
2018-11-23T20:34:02.967Z,41.13
2018-11-23T20:36:31.103Z,38.37
2018-11-23T20:38:59.263Z,41.77
2018-11-23T20:41:27.423Z,37.77
2018-11-23T20:43:55.579Z,37.30
2018-11-23T20:46:23.711Z,36.67
2018-11-23T20:48:51.863Z,38.67
2018-11-23T20:51:20.035Z,35.77
2018-11-23T20:53:48.195Z,40.37
2018-11-23T20:56:16.354Z,38.57
2018-11-23T20:58:44.569Z,37.80
2018-11-23T21:01:12.683Z,37.63
2018-11-23T21:03:40.799Z,40.73
2018-11-23T21:06:08.969Z,39.57
2018-11-23T21:08:37.082Z,37.07
2018-11-23T21:11:05.370Z,38.27
2018-11-23T21:13:33.539Z,39.90
2018-11-23T21:16:01.683Z,37.60
2018-11-23T21:18:29.820Z,41.27
2018-11-23T21:20:57.994Z,39.13
2018-11-23T21:23:26.157Z,40.87
2018-11-23T21:25:54.279Z,36.93
2018-11-23T21:28:22.445Z,38.67
2018-11-23T21:30:50.586Z,37.67
2018-11-23T21:33:18.723Z,41.60
2018-11-23T21:35:46.860Z,39.17
2018-11-23T21:38:14.988Z,41.37
2018-11-23T21:40:44.488Z,40.47
2018-11-23T21:43:11.328Z,38.70
2018-11-23T21:45:39.450Z,42.77
2018-11-23T21:48:07.623Z,36.60
2018-11-23T21:50:35.759Z,40.57
2018-11-23T21:53:03.912Z,42.17
2018-11-23T21:55:32.144Z,39.27
2018-11-23T21:58:00.289Z,35.30
2018-11-23T22:00:28.455Z,37.40
2018-11-23T22:02:56.611Z,37.47
2018-11-23T22:05:24.772Z,35.20
2018-11-23T22:07:52.927Z,39.70
2018-11-23T22:10:21.071Z,37.07
2018-11-23T22:12:49.252Z,36.47
2018-11-23T22:15:17.981Z,39.10
2018-11-23T22:17:46.432Z,37.83
2018-11-23T22:20:15.110Z,38.23
2018-11-23T22:22:43.294Z,40.07
2018-11-23T22:25:12.090Z,41.97
2018-11-23T22:27:40.277Z,37.13
2018-11-23T22:30:12.962Z,38.90
2018-11-23T22:32:41.094Z,39.67
2018-11-23T22:35:09.812Z,38.43
2018-11-23T22:37:37.960Z,40.37
2018-11-23T22:40:07.867Z,37.27
2018-11-23T22:42:35.989Z,38.27
2018-11-23T22:45:04.541Z,38.50
2018-11-23T22:47:32.698Z,36.23
2018-11-23T22:50:00.872Z,36.27
2018-11-23T22:52:29.034Z,40.57
2018-11-23T22:54:57.173Z,36.87
2018-11-23T22:57:25.323Z,38.57
2018-11-23T22:59:53.448Z,38.73
2018-11-23T23:02:21.612Z,38.43
2018-11-23T23:04:49.811Z,36.27
2018-11-23T23:07:17.939Z,39.73
2018-11-23T23:09:46.055Z,37.33
2018-11-23T23:12:14.184Z,36.37
2018-11-23T23:14:42.340Z,34.47
2018-11-23T23:17:10.475Z,34.53
2018-11-23T23:19:38.620Z,38.50
2018-11-23T23:22:06.780Z,34.53
2018-11-23T23:24:34.920Z,35.50
2018-11-23T23:27:03.276Z,37.90
2018-11-23T23:29:31.431Z,35.40
2018-11-23T23:31:59.577Z,35.37
2018-11-23T23:34:27.719Z,33.63
2018-11-23T23:36:55.871Z,37.93
2018-11-23T23:39:24.003Z,33.70
2018-11-23T23:41:52.128Z,35.83
2018-11-23T23:44:20.283Z,34.50
2018-11-23T23:46:48.436Z,33.87
2018-11-23T23:49:16.563Z,36.27
2018-11-23T23:51:44.695Z,35.30
2018-11-23T23:54:12.842Z,30.40
2018-11-23T23:56:40.979Z,33.50
2018-11-23T23:59:09.104Z,36.43
